createdAt,value
2019-04-25T00:00:57.145Z,78.36
2019-04-25T00:02:09.114Z,78.55
2019-04-25T00:03:19.166Z,78.27
2019-04-25T00:04:31.124Z,77.97
2019-04-25T00:05:44.744Z,77.97
2019-04-25T00:06:55.167Z,78.74
2019-04-25T00:08:05.180Z,78.55
2019-04-25T00:09:16.533Z,78.84
2019-04-25T00:10:27.222Z,78.74
2019-04-25T00:11:37.827Z,78.36
2019-04-25T00:12:51.863Z,78.74
2019-04-25T00:14:01.813Z,78.36
2019-04-25T00:15:11.512Z,78.17
2019-04-25T00:16:21.612Z,78.64
2019-04-25T00:17:31.658Z,78.45
2019-04-25T00:18:42.153Z,78.45
2019-04-25T00:19:55.293Z,78.84
2019-04-25T00:21:06.913Z,78.84
2019-04-25T00:22:17.171Z,79.32
2019-04-25T00:23:27.115Z,82.86
2019-04-25T00:24:37.051Z,95.79
2019-04-25T00:25:51.300Z,99.99
2019-04-25T00:27:02.177Z,99.99
2019-04-25T00:28:11.988Z,99.99
2019-04-25T00:29:22.151Z,99.99
2019-04-25T00:30:33.637Z,99.99
2019-04-25T00:31:47.503Z,99.99
2019-04-25T00:32:59.333Z,99.99
2019-04-25T00:34:09.470Z,99.99
2019-04-25T00:35:19.742Z,99.99
2019-04-25T00:36:29.684Z,99.99
2019-04-25T00:37:44.224Z,99.99
2019-04-25T00:38:55.999Z,99.99
2019-04-25T00:40:07.319Z,99.99
2019-04-25T00:41:18.765Z,99.99
2019-04-25T00:42:28.787Z,99.99
2019-04-25T00:43:41.231Z,99.99
2019-04-25T00:44:55.184Z,99.99
2019-04-25T00:46:05.350Z,99.99
2019-04-25T00:47:16.695Z,99.99
2019-04-25T00:48:26.902Z,99.99
2019-04-25T00:49:37.021Z,99.99
2019-04-25T00:50:52.033Z,99.99
2019-04-25T00:52:04.807Z,99.99
2019-04-25T00:53:14.779Z,99.99
2019-04-25T00:54:25.132Z,99.99
2019-04-25T00:55:36.621Z,99.99
2019-04-25T00:56:51.003Z,99.99
2019-04-25T00:58:03.341Z,99.99
2019-04-25T00:59:16.444Z,99.99
2019-04-25T01:00:26.929Z,99.99
2019-04-25T01:01:37.951Z,99.99
2019-04-25T01:02:53.370Z,99.99
2019-04-25T01:04:06.093Z,99.99
2019-04-25T01:05:17.225Z,99.99
2019-04-25T01:06:27.171Z,99.99
2019-04-25T01:07:37.234Z,99.99
2019-04-25T01:08:48.443Z,99.99
2019-04-25T01:10:02.411Z,99.99
2019-04-25T01:11:13.876Z,99.99
2019-04-25T01:12:24.396Z,99.99
2019-04-25T01:13:34.603Z,99.99
2019-04-25T01:14:45.644Z,99.99
2019-04-25T01:15:57.783Z,99.99
2019-04-25T01:17:09.350Z,99.99
2019-04-25T01:18:19.373Z,99.99
2019-04-25T01:19:34.417Z,99.99
2019-04-25T01:20:45.877Z,99.99
2019-04-25T01:21:58.474Z,99.99
2019-04-25T01:23:09.090Z,99.99
2019-04-25T01:24:19.051Z,99.99
2019-04-25T01:25:43.029Z,99.99
2019-04-25T01:26:56.786Z,99.99
2019-04-25T01:28:07.986Z,99.99
2019-04-25T01:29:18.487Z,99.99
2019-04-25T01:30:28.734Z,99.99
2019-04-25T01:31:39.249Z,99.99
2019-04-25T01:32:50.382Z,99.99
2019-04-25T01:34:02.098Z,99.99
2019-04-25T01:35:13.791Z,99.99
2019-04-25T01:36:25.622Z,99.99
2019-04-25T01:37:36.546Z,99.99
2019-04-25T01:38:47.288Z,99.99
2019-04-25T01:40:01.508Z,99.99
2019-04-25T01:41:11.561Z,99.99
2019-04-25T01:42:23.367Z,99.99
2019-04-25T01:43:35.324Z,99.99
2019-04-25T01:44:47.881Z,99.99
2019-04-25T01:46:03.246Z,99.99
2019-04-25T01:47:14.061Z,99.99
2019-04-25T01:48:25.807Z,99.99
2019-04-25T01:49:36.452Z,99.99
2019-04-25T01:50:46.799Z,99.99
2019-04-25T01:52:00.794Z,99.99
2019-04-25T01:53:11.126Z,99.99
2019-04-25T01:54:23.722Z,99.99
2019-04-25T01:55:33.726Z,99.99
2019-04-25T01:57:06.572Z,99.99
2019-04-25T01:58:17.177Z,99.99
2019-04-25T01:59:28.589Z,99.99
2019-04-25T02:00:39.125Z,99.99
2019-04-25T02:01:56.779Z,99.99
2019-04-25T02:03:09.526Z,99.99
2019-04-25T02:04:21.066Z,99.99
2019-04-25T02:05:30.781Z,99.99
2019-04-25T02:06:41.214Z,99.99
2019-04-25T02:07:51.417Z,99.99
2019-04-25T02:09:04.144Z,99.99
2019-04-25T02:10:16.578Z,99.99
2019-04-25T02:11:26.516Z,99.99
2019-04-25T02:12:36.914Z,99.99
2019-04-25T02:13:46.868Z,99.99
2019-04-25T02:15:00.296Z,99.99
2019-04-25T02:16:14.188Z,99.99
2019-04-25T02:17:24.238Z,99.99
2019-04-25T02:18:33.952Z,99.99
2019-04-25T02:19:44.082Z,99.99
2019-04-25T02:21:00.506Z,99.99
2019-04-25T02:22:11.890Z,99.99
2019-04-25T02:23:21.978Z,99.99
2019-04-25T02:24:31.438Z,99.99
2019-04-25T02:25:41.348Z,99.99
2019-04-25T02:26:53.063Z,99.99
2019-04-25T02:28:08.149Z,99.99
2019-04-25T02:29:20.928Z,99.99
2019-04-25T02:30:31.158Z,99.99
2019-04-25T02:31:44.941Z,99.99
2019-04-25T02:33:08.498Z,99.99
2019-04-25T02:34:20.424Z,99.99
2019-04-25T02:35:34.644Z,99.99
2019-04-25T02:36:49.823Z,99.99
2019-04-25T02:38:14.633Z,99.99
2019-04-25T02:39:27.282Z,99.99
2019-04-25T02:40:41.986Z,99.99
2019-04-25T02:41:54.913Z,99.99
2019-04-25T02:43:14.200Z,99.99
2019-04-25T02:44:27.290Z,99.99
2019-04-25T02:45:37.536Z,99.99
2019-04-25T02:46:49.516Z,99.99
2019-04-25T02:48:05.604Z,99.99
2019-04-25T02:49:39.091Z,99.99
2019-04-25T02:50:50.010Z,99.99
2019-04-25T02:52:13.618Z,99.99
2019-04-25T02:53:27.691Z,99.99
2019-04-25T02:54:41.732Z,99.99
2019-04-25T02:55:53.830Z,99.99
2019-04-25T02:57:10.817Z,99.99
2019-04-25T02:58:24.075Z,99.99
2019-04-25T02:59:36.731Z,99.99
2019-04-25T03:01:07.872Z,99.99
2019-04-25T03:02:30.921Z,99.99
2019-04-25T03:03:44.884Z,99.99
2019-04-25T03:04:58.129Z,99.99
2019-04-25T03:06:17.709Z,99.99
2019-04-25T03:07:30.179Z,99.99
2019-04-25T03:08:42.293Z,99.99
2019-04-25T03:09:54.528Z,99.99
2019-04-25T03:11:14.567Z,99.99
2019-04-25T03:12:36.680Z,99.99
2019-04-25T03:13:47.366Z,99.99
2019-04-25T03:15:05.219Z,99.99
2019-04-25T03:16:19.787Z,99.99
2019-04-25T03:17:30.470Z,99.99
2019-04-25T03:18:41.692Z,99.99
2019-04-25T03:19:53.965Z,99.99
2019-04-25T03:21:17.438Z,99.99
2019-04-25T03:22:29.898Z,99.99
2019-04-25T03:23:46.265Z,99.99
2019-04-25T03:24:58.704Z,99.99
2019-04-25T03:26:20.512Z,99.99
2019-04-25T03:27:44.057Z,99.99
2019-04-25T03:28:54.130Z,99.99
2019-04-25T03:30:16.679Z,99.99
2019-04-25T03:31:29.768Z,99.99
2019-04-25T03:32:44.794Z,99.99
2019-04-25T03:34:03.492Z,99.99
2019-04-25T03:35:28.281Z,99.99
2019-04-25T03:36:38.222Z,99.99
2019-04-25T03:37:49.177Z,99.99
2019-04-25T03:38:59.991Z,99.99
2019-04-25T03:40:13.753Z,99.99
2019-04-25T03:41:24.518Z,99.99
2019-04-25T03:42:34.314Z,99.99
2019-04-25T03:43:44.323Z,99.99
2019-04-25T03:44:54.027Z,99.99
2019-04-25T03:46:07.092Z,99.99
2019-04-25T03:47:19.455Z,99.99
2019-04-25T03:48:30.866Z,99.99
2019-04-25T03:49:45.847Z,99.99
2019-04-25T03:50:57.895Z,99.99
2019-04-25T03:52:10.639Z,99.99
2019-04-25T03:53:21.844Z,99.99
2019-04-25T03:54:31.301Z,99.99
2019-04-25T03:55:41.254Z,99.99
2019-04-25T03:56:56.280Z,99.99
2019-04-25T03:58:14.268Z,99.99
2019-04-25T03:59:26.025Z,99.99
2019-04-25T04:00:38.749Z,99.99
2019-04-25T04:01:49.801Z,99.99
2019-04-25T04:03:06.432Z,99.99
2019-04-25T04:04:18.517Z,99.99
2019-04-25T04:05:29.071Z,99.99
2019-04-25T04:06:39.554Z,99.99
2019-04-25T04:07:49.399Z,99.99
2019-04-25T04:08:59.095Z,99.99
2019-04-25T04:10:12.005Z,99.99
2019-04-25T04:11:24.169Z,99.99
2019-04-25T04:12:35.510Z,99.99
2019-04-25T04:13:47.243Z,99.99
2019-04-25T04:14:58.435Z,99.99
2019-04-25T04:16:10.864Z,99.99
2019-04-25T04:17:23.496Z,99.99
2019-04-25T04:18:33.976Z,99.99
2019-04-25T04:19:45.203Z,99.99
2019-04-25T04:20:56.619Z,99.99
2019-04-25T04:22:07.859Z,99.99
2019-04-25T04:23:20.591Z,99.99
2019-04-25T04:24:30.869Z,99.99
2019-04-25T04:25:42.898Z,99.99
2019-04-25T04:27:07.774Z,99.99
2019-04-25T04:28:21.741Z,99.99
2019-04-25T04:29:33.077Z,99.99
2019-04-25T04:30:43.545Z,99.99
2019-04-25T04:31:56.920Z,99.99
2019-04-25T04:33:21.389Z,99.99
2019-04-25T04:34:39.923Z,99.99
2019-04-25T04:35:53.996Z,99.99
2019-04-25T04:37:07.446Z,99.99
2019-04-25T04:38:20.533Z,99.99
2019-04-25T04:39:31.161Z,99.99
2019-04-25T04:40:41.263Z,99.99
2019-04-25T04:41:51.585Z,99.99
2019-04-25T04:43:04.292Z,99.99
2019-04-25T04:44:18.925Z,99.99
2019-04-25T04:45:29.395Z,99.99
2019-04-25T04:46:39.575Z,99.99
2019-04-25T04:47:49.031Z,99.99
2019-04-25T04:48:58.990Z,99.99
2019-04-25T04:50:09.201Z,99.99
2019-04-25T04:51:23.395Z,99.99
2019-04-25T04:52:34.067Z,99.99
2019-04-25T04:53:43.933Z,99.99
2019-04-25T04:55:08.835Z,99.99
2019-04-25T04:56:28.105Z,99.99
2019-04-25T04:57:39.487Z,99.99
2019-04-25T04:58:53.726Z,99.99
2019-04-25T05:00:03.914Z,99.99
2019-04-25T05:01:15.655Z,99.99
2019-04-25T05:02:27.629Z,99.99
2019-04-25T05:03:38.395Z,99.99
2019-04-25T05:04:49.367Z,99.99
2019-04-25T05:06:01.201Z,99.99
2019-04-25T05:07:11.113Z,99.99
2019-04-25T05:08:24.749Z,99.99
2019-04-25T05:09:35.900Z,99.99
2019-04-25T05:10:46.428Z,99.99
2019-04-25T05:11:58.767Z,99.99
2019-04-25T05:13:09.359Z,99.99
2019-04-25T05:14:21.929Z,99.99
2019-04-25T05:15:35.497Z,99.99
2019-04-25T05:16:46.250Z,99.99
2019-04-25T05:17:58.520Z,99.99
2019-04-25T05:19:09.063Z,99.99
2019-04-25T05:20:22.044Z,99.99
2019-04-25T05:21:31.646Z,99.99
2019-04-25T05:22:41.598Z,99.99
2019-04-25T05:23:51.935Z,99.99
2019-04-25T05:25:03.351Z,99.99
2019-04-25T05:26:15.040Z,99.99
2019-04-25T05:27:57.418Z,99.99
2019-04-25T05:29:13.795Z,99.99
2019-04-25T05:30:33.557Z,99.99
2019-04-25T05:31:43.899Z,99.99
2019-04-25T05:32:56.580Z,99.99
2019-04-25T05:34:06.892Z,99.99
2019-04-25T05:35:21.939Z,99.99
2019-04-25T05:36:33.753Z,99.99
2019-04-25T05:37:43.620Z,99.99
2019-04-25T05:38:53.874Z,99.99
2019-04-25T05:40:05.590Z,99.62
2019-04-25T05:41:20.210Z,99.71
2019-04-25T05:42:33.094Z,99.62
2019-04-25T05:43:43.553Z,98.47
2019-04-25T05:44:54.079Z,97.71
2019-04-25T05:46:05.790Z,96.94
2019-04-25T05:47:20.345Z,96.37
2019-04-25T05:48:36.525Z,96.46
2019-04-25T05:49:46.710Z,96.46
2019-04-25T05:50:57.037Z,95.41
2019-04-25T05:52:07.036Z,95.7
2019-04-25T05:53:18.661Z,94.84
2019-04-25T05:54:31.199Z,94.6
2019-04-25T05:55:41.749Z,93.84
2019-04-25T05:56:51.560Z,93.74
2019-04-25T05:58:01.012Z,94.12
2019-04-25T05:59:11.019Z,93.55
2019-04-25T06:00:21.474Z,93.26
2019-04-25T06:01:34.295Z,93.65
2019-04-25T06:02:48.565Z,93.07
2019-04-25T06:03:58.402Z,92.02
2019-04-25T06:05:10.302Z,92.21
2019-04-25T06:06:23.579Z,91.93
2019-04-25T06:07:33.498Z,92.16
2019-04-25T06:08:44.177Z,91.97
2019-04-25T06:09:54.398Z,90.34
2019-04-25T06:11:06.398Z,90.73
2019-04-25T06:12:16.468Z,92.07
2019-04-25T06:13:31.056Z,91.49
2019-04-25T06:14:40.822Z,90.63
2019-04-25T06:15:51.036Z,89.77
2019-04-25T06:17:00.764Z,91.49
2019-04-25T06:18:11.112Z,90.34
2019-04-25T06:19:25.218Z,88.95
2019-04-25T06:20:36.925Z,89.48
2019-04-25T06:21:47.242Z,88.81
2019-04-25T06:22:58.748Z,89.48
2019-04-25T06:24:08.719Z,88.76
2019-04-25T06:25:21.065Z,88.38
2019-04-25T06:26:46.794Z,87.14
2019-04-25T06:28:01.358Z,86.66
2019-04-25T06:29:11.191Z,86.85
2019-04-25T06:30:21.152Z,85.71
2019-04-25T06:31:34.158Z,86.76
2019-04-25T06:32:43.953Z,85.22
2019-04-25T06:33:56.208Z,84.75
2019-04-25T06:35:07.477Z,84.65
2019-04-25T06:36:17.438Z,84.75
2019-04-25T06:37:31.444Z,85.38
2019-04-25T06:38:44.203Z,85.47
2019-04-25T06:39:56.083Z,85.66
2019-04-25T06:41:06.590Z,85.28
2019-04-25T06:42:16.546Z,85.75
2019-04-25T06:43:30.078Z,86.08
2019-04-25T06:44:43.217Z,85.99
2019-04-25T06:45:54.048Z,86.33
2019-04-25T06:47:06.715Z,86.37
2019-04-25T06:48:18.536Z,85.61
2019-04-25T06:49:34.806Z,84.94
2019-04-25T06:50:46.272Z,84.84
2019-04-25T06:51:56.845Z,85.41
2019-04-25T06:53:07.680Z,85.22
2019-04-25T06:54:18.619Z,84.55
2019-04-25T06:55:34.119Z,84.27
2019-04-25T06:56:45.898Z,84.94
2019-04-25T06:58:08.815Z,84.94
2019-04-25T06:59:24.756Z,84.84
2019-04-25T07:01:01.008Z,85.61
2019-04-25T07:02:11.132Z,84.17
2019-04-25T07:03:22.771Z,83.98
2019-04-25T07:04:36.920Z,83.5
2019-04-25T07:05:48.591Z,83.4
2019-04-25T07:07:09.596Z,83.4
2019-04-25T07:08:25.406Z,83.31
2019-04-25T07:09:38.551Z,83.64
2019-04-25T07:10:48.673Z,83.54
2019-04-25T07:12:00.483Z,82.64
2019-04-25T07:13:11.251Z,82.74
2019-04-25T07:14:21.914Z,82.93
2019-04-25T07:15:36.207Z,82.2
2019-04-25T07:16:46.361Z,83.5
2019-04-25T07:17:56.462Z,82.97
2019-04-25T07:19:07.029Z,84.17
2019-04-25T07:20:18.979Z,84.27
2019-04-25T07:21:34.615Z,83.98
2019-04-25T07:22:46.232Z,84.08
2019-04-25T07:23:56.611Z,84.55
2019-04-25T07:25:07.048Z,84.75
2019-04-25T07:26:18.464Z,84.55
2019-04-25T07:27:30.837Z,85.03
2019-04-25T07:28:43.988Z,84.17
2019-04-25T07:29:54.050Z,83.5
2019-04-25T07:31:06.003Z,83.22
2019-04-25T07:32:16.947Z,83.31
2019-04-25T07:33:31.374Z,82.4
2019-04-25T07:34:43.776Z,83.16
2019-04-25T07:35:56.495Z,82.64
2019-04-25T07:37:07.193Z,82.59
2019-04-25T07:38:18.529Z,81.82
2019-04-25T07:39:29.908Z,82.35
2019-04-25T07:40:41.481Z,80.67
2019-04-25T07:41:54.058Z,80.96
2019-04-25T07:43:04.827Z,80.87
2019-04-25T07:44:17.268Z,81.63
2019-04-25T07:45:57.476Z,79.81
2019-04-25T07:47:08.734Z,79.91
2019-04-25T07:48:19.196Z,79.91
2019-04-25T07:49:33.532Z,79.72
2019-04-25T07:50:46.335Z,79.33
2019-04-25T07:51:56.590Z,80.29
2019-04-25T07:53:08.159Z,80.1
2019-04-25T07:54:19.328Z,81.34
2019-04-25T07:55:33.237Z,79.52
2019-04-25T07:56:46.461Z,79.52
2019-04-25T07:57:57.905Z,79.43
2019-04-25T07:59:08.434Z,78.57
2019-04-25T08:00:19.234Z,79.43
2019-04-25T08:01:31.440Z,80
2019-04-25T08:02:46.314Z,79.24
2019-04-25T08:03:57.165Z,78.8
2019-04-25T08:05:08.757Z,79.28
2019-04-25T08:06:22.017Z,78.99
2019-04-25T08:07:35.204Z,78.32
2019-04-25T08:08:46.583Z,77.36
2019-04-25T08:09:57.503Z,77.84
2019-04-25T08:11:06.962Z,77.46
2019-04-25T08:12:17.116Z,77.17
2019-04-25T08:13:28.752Z,77.5
2019-04-25T08:14:41.206Z,77.4
2019-04-25T08:15:53.823Z,77.5
2019-04-25T08:17:03.869Z,77.5
2019-04-25T08:18:13.947Z,77.21
2019-04-25T08:19:27.549Z,77.21
2019-04-25T08:20:40.191Z,76.73
2019-04-25T08:21:53.264Z,76.25
2019-04-25T08:23:04.199Z,76.15
2019-04-25T08:24:14.240Z,76.44
2019-04-25T08:25:25.876Z,76.73
2019-04-25T08:26:43.642Z,76.73
2019-04-25T08:27:55.115Z,74.52
2019-04-25T08:29:06.694Z,74.33
2019-04-25T08:30:18.523Z,71.94
2019-04-25T08:31:30.341Z,73.09
2019-04-25T08:32:44.030Z,73.99
2019-04-25T08:33:53.677Z,74.08
2019-04-25T08:35:03.799Z,73.51
2019-04-25T08:36:13.782Z,72.74
2019-04-25T08:37:24.118Z,72.17
2019-04-25T08:38:38.535Z,70.06
2019-04-25T08:39:49.775Z,68.72
2019-04-25T08:41:01.423Z,68.08
2019-04-25T08:42:13.015Z,68.75
2019-04-25T08:43:24.309Z,68.27
2019-04-25T08:44:40.101Z,67.6
2019-04-25T08:45:54.191Z,67.02
2019-04-25T08:47:04.518Z,66.55
2019-04-25T08:48:15.989Z,64.34
2019-04-25T08:49:26.459Z,64.66
2019-04-25T08:50:42.721Z,65.2
2019-04-25T08:51:54.214Z,66.19
2019-04-25T08:53:07.048Z,66.39
2019-04-25T08:54:18.042Z,63.03
2019-04-25T08:55:28.897Z,62.87
2019-04-25T08:56:43.822Z,63.64
2019-04-25T08:57:54.094Z,62.1
2019-04-25T08:59:08.189Z,61.94
2019-04-25T09:00:19.524Z,62.74
2019-04-25T09:01:29.478Z,61.33
2019-04-25T09:02:47.752Z,58.76
2019-04-25T09:03:57.455Z,57.6
2019-04-25T09:05:10.314Z,57.15
2019-04-25T09:06:24.350Z,56.9
2019-04-25T09:07:39.091Z,55.83
2019-04-25T09:08:51.415Z,53.27
2019-04-25T09:10:03.388Z,52.87
2019-04-25T09:11:13.512Z,53.07
2019-04-25T09:12:23.995Z,53.65
2019-04-25T09:13:38.595Z,51.94
2019-04-25T09:14:49.818Z,51.26
2019-04-25T09:15:59.759Z,50.84
2019-04-25T09:17:11.197Z,49.22
2019-04-25T09:18:21.917Z,45.48
2019-04-25T09:19:31.892Z,44.32
2019-04-25T09:20:48.862Z,43.47
2019-04-25T09:21:59.322Z,42
2019-04-25T09:23:10.861Z,39.97
2019-04-25T09:24:21.321Z,42.02
2019-04-25T09:25:33.755Z,42.89
2019-04-25T09:26:47.726Z,43.01
2019-04-25T09:27:59.018Z,43.1
2019-04-25T09:29:21.221Z,43.59
2019-04-25T09:30:30.955Z,44.07
2019-04-25T09:31:45.083Z,44.36
2019-04-25T09:32:56.654Z,46.3
2019-04-25T09:34:07.594Z,43.71
2019-04-25T09:35:20.210Z,43.05
2019-04-25T09:36:31.293Z,41.82
2019-04-25T09:37:41.331Z,39.51
2019-04-25T09:38:53.819Z,39.43
2019-04-25T09:40:04.201Z,39.9
2019-04-25T09:41:15.295Z,40.48
2019-04-25T09:42:26.570Z,37.98
2019-04-25T09:43:38.259Z,37.69
2019-04-25T09:44:51.551Z,36.24
2019-04-25T09:46:01.396Z,36.33
2019-04-25T09:47:13.604Z,36.72
2019-04-25T09:48:23.367Z,35.96
2019-04-25T09:49:33.851Z,37.21
2019-04-25T09:50:48.727Z,37.01
2019-04-25T09:51:58.712Z,35.85
2019-04-25T09:53:15.401Z,35.17
2019-04-25T09:54:33.560Z,33.7
2019-04-25T09:55:49.199Z,35.56
2019-04-25T09:56:59.522Z,36.04
2019-04-25T09:58:10.804Z,35.17
2019-04-25T09:59:30.143Z,36.33
2019-04-25T10:00:43.539Z,34.12
2019-04-25T10:01:55.265Z,35.28
2019-04-25T10:03:07.054Z,33.84
2019-04-25T10:04:18.749Z,32.65
2019-04-25T10:05:30.648Z,32.17
2019-04-25T10:06:44.605Z,33.91
2019-04-25T10:07:56.440Z,34.02
2019-04-25T10:09:07.464Z,33.18
2019-04-25T10:10:20.639Z,33.29
2019-04-25T10:11:33.364Z,31.27
2019-04-25T10:12:45.314Z,30.5
2019-04-25T10:13:57.667Z,31.18
2019-04-25T10:15:07.490Z,31.07
2019-04-25T10:16:19.078Z,30.58
2019-04-25T10:17:28.818Z,30
2019-04-25T10:18:43.278Z,29.82
2019-04-25T10:19:53.128Z,28.78
2019-04-25T10:21:04.246Z,29.26
2019-04-25T10:22:14.071Z,28.2
2019-04-25T10:23:24.088Z,28.3
2019-04-25T10:24:34.145Z,28.2
2019-04-25T10:25:47.370Z,28.89
2019-04-25T10:26:59.041Z,29.96
2019-04-25T10:28:09.008Z,29.78
2019-04-25T10:29:18.463Z,29.1
2019-04-25T10:30:28.514Z,29.1
2019-04-25T10:31:39.826Z,29.94
2019-04-25T10:32:54.729Z,31.01
2019-04-25T10:34:06.256Z,29.96
2019-04-25T10:35:17.360Z,30.54
2019-04-25T10:36:27.145Z,30.07
2019-04-25T10:37:45.148Z,29.97
2019-04-25T10:39:11.084Z,30.07
2019-04-25T10:40:23.379Z,29.18
2019-04-25T10:41:39.888Z,31.71
2019-04-25T10:42:55.792Z,29.88
2019-04-25T10:44:06.910Z,29.11
2019-04-25T10:45:26.120Z,28.43
2019-04-25T10:46:36.972Z,27.86
2019-04-25T10:47:51.591Z,29.69
2019-04-25T10:49:04.345Z,28.83
2019-04-25T10:50:15.962Z,28.25
2019-04-25T10:51:26.767Z,27.29
2019-04-25T10:52:37.213Z,26.41
2019-04-25T10:53:49.874Z,26.4
2019-04-25T10:55:03.997Z,26.12
2019-04-25T10:56:14.343Z,25.15
2019-04-25T10:57:24.762Z,25.26
2019-04-25T10:58:37.725Z,24.29
2019-04-25T11:00:08.798Z,24.98
2019-04-25T11:01:19.323Z,24.32
2019-04-25T11:02:29.800Z,23.44
2019-04-25T11:03:44.486Z,23.26
2019-04-25T11:04:58.538Z,23.34
2019-04-25T11:06:08.580Z,23.44
2019-04-25T11:07:19.392Z,23.71
2019-04-25T11:08:30.836Z,23.6
2019-04-25T11:09:45.004Z,25.25
2019-04-25T11:10:57.955Z,25.46
2019-04-25T11:12:09.063Z,25.46
2019-04-25T11:13:18.772Z,25.27
2019-04-25T11:14:28.754Z,25.1
2019-04-25T11:15:39.559Z,24.22
2019-04-25T11:16:50.788Z,24.63
2019-04-25T11:18:04.074Z,23.27
2019-04-25T11:19:15.298Z,22.8
2019-04-25T11:20:26.826Z,21.73
2019-04-25T11:21:36.801Z,21.73
2019-04-25T11:22:49.660Z,22.33
2019-04-25T11:24:00.828Z,21.84
2019-04-25T11:25:11.466Z,20.47
2019-04-25T11:26:22.610Z,19.78
2019-04-25T11:27:33.988Z,19.67
2019-04-25T11:28:47.335Z,19.85
2019-04-25T11:30:11.546Z,19.76
2019-04-25T11:31:23.302Z,18.98
2019-04-25T11:32:33.888Z,19.77
2019-04-25T11:33:44.032Z,19.18
2019-04-25T11:34:54.943Z,19.38
2019-04-25T11:36:06.680Z,19.68
2019-04-25T11:37:18.536Z,18.91
2019-04-25T11:38:30.850Z,18.91
2019-04-25T11:39:41.795Z,17.73
2019-04-25T11:40:55.068Z,19.28
2019-04-25T11:42:06.558Z,19.28
2019-04-25T11:43:17.900Z,19.27
2019-04-25T11:44:27.890Z,19.65
2019-04-25T11:45:40.012Z,19.85
2019-04-25T11:46:51.891Z,20.22
2019-04-25T11:48:02.005Z,19.26
2019-04-25T11:49:13.084Z,19.16
2019-04-25T11:50:26.650Z,19.06
2019-04-25T11:51:36.628Z,18.77
2019-04-25T11:52:49.317Z,18.68
2019-04-25T11:54:03.498Z,19.08
2019-04-25T11:55:14.287Z,18.89
2019-04-25T11:56:24.257Z,19.18
2019-04-25T11:57:34.311Z,18.7
2019-04-25T11:58:47.965Z,18.5
2019-04-25T12:00:00.445Z,18.85
2019-04-25T12:01:24.464Z,18.95
2019-04-25T12:02:34.412Z,19.82
2019-04-25T12:03:46.488Z,18.95
2019-04-25T12:04:58.726Z,18.47
2019-04-25T12:06:11.089Z,18.87
2019-04-25T12:07:21.044Z,18.39
2019-04-25T12:08:31.375Z,17.62
2019-04-25T12:09:41.341Z,17.63
2019-04-25T12:10:57.417Z,17.24
2019-04-25T12:12:08.950Z,17.04
2019-04-25T12:13:20.049Z,16.93
2019-04-25T12:14:33.984Z,18.79
2019-04-25T12:15:45.995Z,19.08
2019-04-25T12:16:58.700Z,18.12
2019-04-25T12:18:09.173Z,17.73
2019-04-25T12:19:18.885Z,18.02
2019-04-25T12:20:44.707Z,17.73
2019-04-25T12:22:00.717Z,17.24
2019-04-25T12:23:14.385Z,17.65
2019-04-25T12:24:24.225Z,17.05
2019-04-25T12:25:34.101Z,17.15
2019-04-25T12:26:46.368Z,17.72
2019-04-25T12:28:00.338Z,17.04
2019-04-25T12:29:12.158Z,18.4
2019-04-25T12:30:34.601Z,18.21
2019-04-25T12:31:50.337Z,17.63
2019-04-25T12:33:03.334Z,16.95
2019-04-25T12:34:26.855Z,16.96
2019-04-25T12:35:36.839Z,16.96
2019-04-25T12:36:47.547Z,17.05
2019-04-25T12:38:00.414Z,17.05
2019-04-25T12:39:11.095Z,17.35
2019-04-25T12:40:21.698Z,16.76
2019-04-25T12:41:31.960Z,17.16
2019-04-25T12:42:41.429Z,16.78
2019-04-25T12:43:54.530Z,17.08
2019-04-25T12:45:06.625Z,16.49
2019-04-25T12:46:16.821Z,15.9
2019-04-25T12:47:26.791Z,15.91
2019-04-25T12:48:37.301Z,15.91
2019-04-25T12:49:49.195Z,15.42
2019-04-25T12:51:01.073Z,16.49
2019-04-25T12:52:10.651Z,16.39
2019-04-25T12:53:20.620Z,16.2
2019-04-25T12:54:30.974Z,16.49
2019-04-25T12:55:41.335Z,16.08
2019-04-25T12:56:53.714Z,16.27
2019-04-25T12:58:08.255Z,17.24
2019-04-25T12:59:18.867Z,16.86
2019-04-25T13:00:28.881Z,16.77
2019-04-25T13:01:53.543Z,16.77
2019-04-25T13:03:09.441Z,15.6
2019-04-25T13:04:19.699Z,16.59
2019-04-25T13:05:29.687Z,15.7
2019-04-25T13:06:39.394Z,15.91
2019-04-25T13:07:49.365Z,15.81
2019-04-25T13:09:07.888Z,16.3
2019-04-25T13:10:17.860Z,15.61
2019-04-25T13:11:28.685Z,15.14
2019-04-25T13:12:40.095Z,15.73
2019-04-25T13:13:50.064Z,15.25
2019-04-25T13:15:00.028Z,15.64
2019-04-25T13:16:10.005Z,14.96
2019-04-25T13:17:20.842Z,15.26
2019-04-25T13:18:31.293Z,15.16
2019-04-25T13:19:41.256Z,14.97
2019-04-25T13:20:51.844Z,14.58
2019-04-25T13:22:03.563Z,14.58
2019-04-25T13:23:14.375Z,13.5
2019-04-25T13:24:24.195Z,14.29
2019-04-25T13:25:34.314Z,14.39
2019-04-25T13:26:45.885Z,14.09
2019-04-25T13:27:56.399Z,13.2
2019-04-25T13:29:11.632Z,13.49
2019-04-25T13:30:24.227Z,14.15
2019-04-25T13:31:35.691Z,14.53
2019-04-25T13:32:47.215Z,14.9
2019-04-25T13:33:57.343Z,15.86
2019-04-25T13:35:10.875Z,16.06
2019-04-25T13:36:20.982Z,15.97
2019-04-25T13:37:30.964Z,15.58
2019-04-25T13:38:41.560Z,15.19
2019-04-25T13:39:54.042Z,15.67
2019-04-25T13:41:06.521Z,15.58
2019-04-25T13:42:16.823Z,15.67
2019-04-25T13:43:28.245Z,16.25
2019-04-25T13:44:37.962Z,16.55
2019-04-25T13:45:49.264Z,16.17
2019-04-25T13:46:58.730Z,16.17
2019-04-25T13:48:09.429Z,16.46
2019-04-25T13:49:20.632Z,16.47
2019-04-25T13:50:30.596Z,15.79
2019-04-25T13:51:42.046Z,15.89
2019-04-25T13:52:53.207Z,14.53
2019-04-25T13:54:03.331Z,14.63
2019-04-25T13:55:13.655Z,14.53
2019-04-25T13:56:28.504Z,14.63
2019-04-25T13:57:43.482Z,14.74
2019-04-25T13:58:54.211Z,14.84
2019-04-25T14:00:04.186Z,14.55
2019-04-25T14:01:17.675Z,14.56
2019-04-25T14:02:31.472Z,14.06
2019-04-25T14:03:41.247Z,14.47
2019-04-25T14:04:52.066Z,13.78
2019-04-25T14:06:03.526Z,14.17
2019-04-25T14:07:13.397Z,13.68
2019-04-25T14:08:26.973Z,13.96
2019-04-25T14:09:38.724Z,13.77
2019-04-25T14:10:49.916Z,13.96
2019-04-25T14:11:59.878Z,13.86
2019-04-25T14:13:11.377Z,14.05
2019-04-25T14:14:21.461Z,14.04
2019-04-25T14:15:34.352Z,13.17
2019-04-25T14:16:46.243Z,13.46
2019-04-25T14:17:57.506Z,13.26
2019-04-25T14:19:09.026Z,14.04
2019-04-25T14:20:20.833Z,13.76
2019-04-25T14:21:35.838Z,13.66
2019-04-25T14:22:47.867Z,14.06
2019-04-25T14:23:58.944Z,13.86
2019-04-25T14:25:08.660Z,13.17
2019-04-25T14:26:20.614Z,13.55
2019-04-25T14:27:30.513Z,13.65
2019-04-25T14:28:41.928Z,13.85
2019-04-25T14:29:53.449Z,13.75
2019-04-25T14:31:03.046Z,14.04
2019-04-25T14:32:12.767Z,14.14
2019-04-25T14:33:25.213Z,13.45
2019-04-25T14:34:38.239Z,14.04
2019-04-25T14:35:48.575Z,13.95
2019-04-25T14:37:00.112Z,14.04
2019-04-25T14:38:09.846Z,13.55
2019-04-25T14:39:21.196Z,13.55
2019-04-25T14:40:33.303Z,13.65
2019-04-25T14:41:45.141Z,13.64
2019-04-25T14:42:55.124Z,14.03
2019-04-25T14:44:05.119Z,13.94
2019-04-25T14:45:15.116Z,14.24
2019-04-25T14:46:26.495Z,14.14
2019-04-25T14:47:38.586Z,13.95
2019-04-25T14:48:50.217Z,14.25
2019-04-25T14:50:00.319Z,13.08
2019-04-25T14:51:13.203Z,12.88
2019-04-25T14:52:24.368Z,13.36
2019-04-25T14:53:37.470Z,14.24
2019-04-25T14:54:47.197Z,14.05
2019-04-25T14:55:57.170Z,13.66
2019-04-25T14:57:07.152Z,13.36
2019-04-25T14:58:17.147Z,13.46
2019-04-25T14:59:28.984Z,13.85
2019-04-25T15:00:39.173Z,13.95
2019-04-25T15:01:49.142Z,13.94
2019-04-25T15:02:59.123Z,14.23
2019-04-25T15:04:08.608Z,13.84
2019-04-25T15:05:18.345Z,14.33
2019-04-25T15:06:29.681Z,14.23
2019-04-25T15:07:40.667Z,14.14
2019-04-25T15:08:51.182Z,13.73
2019-04-25T15:10:00.637Z,14.23
2019-04-25T15:11:10.100Z,14.03
2019-04-25T15:12:20.126Z,14.61
2019-04-25T15:13:32.406Z,14.71
2019-04-25T15:14:42.636Z,14.22
2019-04-25T15:15:52.365Z,14.03
2019-04-25T15:17:01.837Z,13.84
2019-04-25T15:18:11.800Z,13.93
2019-04-25T15:19:21.776Z,14.62
2019-04-25T15:20:32.822Z,13.45
2019-04-25T15:21:42.835Z,14.04
2019-04-25T15:22:52.837Z,14.34
2019-04-25T15:24:02.793Z,14.33
2019-04-25T15:25:12.778Z,14.42
2019-04-25T15:26:22.490Z,14.62
2019-04-25T15:27:34.019Z,14.03
2019-04-25T15:28:43.999Z,14.03
2019-04-25T15:29:54.038Z,14.01
2019-04-25T15:31:03.768Z,14.9
2019-04-25T15:32:13.788Z,14.51
2019-04-25T15:33:24.246Z,14.9
2019-04-25T15:34:34.278Z,15.19